sensor_id;sensor_type;location;lat;lon;timestamp;temperature;humidity
52903;DHT22;38765;53.176;7.090;2022-08-21T00:01:07;16.20;99.90
52903;DHT22;38765;53.176;7.090;2022-08-21T00:03:34;16.20;99.90
52903;DHT22;38765;53.176;7.090;2022-08-21T00:06:00;16.20;99.90
52903;DHT22;38765;53.176;7.090;2022-08-21T00:08:28;16.10;99.90
52903;DHT22;38765;53.176;7.090;2022-08-21T00:10:54;16.10;99.90
52903;DHT22;38765;53.176;7.090;2022-08-21T00:13:22;16.10;99.90
52903;DHT22;38765;53.176;7.090;2022-08-21T00:15:51;16.00;99.90
52903;DHT22;38765;53.176;7.090;2022-08-21T00:18:17;15.90;99.90
52903;DHT22;38765;53.176;7.090;2022-08-21T00:20:44;16.00;99.90
52903;DHT22;38765;53.176;7.090;2022-08-21T00:23:17;16.00;99.90
52903;DHT22;38765;53.176;7.090;2022-08-21T00:25:44;16.00;99.90
52903;DHT22;38765;53.176;7.090;2022-08-21T00:28:15;15.90;99.90
52903;DHT22;38765;53.176;7.090;2022-08-21T00:30:49;15.90;99.90
52903;DHT22;38765;53.176;7.090;2022-08-21T00:33:16;15.90;99.90
52903;DHT22;38765;53.176;7.090;2022-08-21T00:35:45;15.80;99.90
52903;DHT22;38765;53.176;7.090;2022-08-21T00:38:11;15.80;99.90
52903;DHT22;38765;53.176;7.090;2022-08-21T00:40:48;15.80;99.90
52903;DHT22;38765;53.176;7.090;2022-08-21T00:43:24;15.80;99.90
52903;DHT22;38765;53.176;7.090;2022-08-21T00:45:51;15.70;99.90
52903;DHT22;38765;53.176;7.090;2022-08-21T00:48:18;15.70;99.90
52903;DHT22;38765;53.176;7.090;2022-08-21T00:53:23;15.70;99.90
52903;DHT22;38765;53.176;7.090;2022-08-21T00:55:55;15.60;99.90
52903;DHT22;38765;53.176;7.090;2022-08-21T00:58:21;15.60;99.90
52903;DHT22;38765;53.176;7.090;2022-08-21T01:00:50;15.50;99.90
52903;DHT22;38765;53.176;7.090;2022-08-21T01:03:23;15.50;99.90
52903;DHT22;38765;53.176;7.090;2022-08-21T01:05:56;15.50;99.90
52903;DHT22;38765;53.176;7.090;2022-08-21T01:08:23;15.50;99.90
52903;DHT22;38765;53.176;7.090;2022-08-21T01:10:53;15.50;99.90
52903;DHT22;38765;53.176;7.090;2022-08-21T01:13:19;15.40;99.90
52903;DHT22;38765;53.176;7.090;2022-08-21T01:15:48;15.40;99.90
52903;DHT22;38765;53.176;7.090;2022-08-21T01:18:19;15.40;99.90
52903;DHT22;38765;53.176;7.090;2022-08-21T01:23:29;15.40;99.90
52903;DHT22;38765;53.176;7.090;2022-08-21T01:26:03;15.30;99.90
52903;DHT22;38765;53.176;7.090;2022-08-21T01:28:36;15.30;99.90
52903;DHT22;38765;53.176;7.090;2022-08-21T01:31:07;15.30;99.90
52903;DHT22;38765;53.176;7.090;2022-08-21T01:33:34;15.30;99.90
52903;DHT22;38765;53.176;7.090;2022-08-21T01:36:02;15.40;99.90
52903;DHT22;38765;53.176;7.090;2022-08-21T01:38:38;15.30;99.90
52903;DHT22;38765;53.176;7.090;2022-08-21T01:41:06;15.30;99.90
52903;DHT22;38765;53.176;7.090;2022-08-21T01:43:34;15.30;99.90
52903;DHT22;38765;53.176;7.090;2022-08-21T01:46:08;15.20;99.90
52903;DHT22;38765;53.176;7.090;2022-08-21T01:48:42;15.30;99.90
52903;DHT22;38765;53.176;7.090;2022-08-21T01:51:08;15.20;99.90
52903;DHT22;38765;53.176;7.090;2022-08-21T01:53:39;15.30;99.90
52903;DHT22;38765;53.176;7.090;2022-08-21T01:56:11;15.30;99.90
52903;DHT22;38765;53.176;7.090;2022-08-21T01:58:43;15.20;99.90
52903;DHT22;38765;53.176;7.090;2022-08-21T02:01:16;15.30;99.90
52903;DHT22;38765;53.176;7.090;2022-08-21T02:03:57;15.30;99.90
52903;DHT22;38765;53.176;7.090;2022-08-21T02:06:29;15.20;99.90
52903;DHT22;38765;53.176;7.090;2022-08-21T02:08:57;15.20;99.90
52903;DHT22;38765;53.176;7.090;2022-08-21T02:11:28;15.20;99.90
52903;DHT22;38765;53.176;7.090;2022-08-21T02:13:54;15.20;99.90
52903;DHT22;38765;53.176;7.090;2022-08-21T02:16:26;15.10;99.90
52903;DHT22;38765;53.176;7.090;2022-08-21T02:18:55;14.60;99.90
52903;DHT22;38765;53.176;7.090;2022-08-21T02:21:21;15.10;99.90
52903;DHT22;38765;53.176;7.090;2022-08-21T02:23:47;15.10;99.90
52903;DHT22;38765;53.176;7.090;2022-08-21T02:26:13;15.10;99.90
52903;DHT22;38765;53.176;7.090;2022-08-21T02:28:43;15.10;99.90
52903;DHT22;38765;53.176;7.090;2022-08-21T02:31:09;15.00;99.90
52903;DHT22;38765;53.176;7.090;2022-08-21T02:33:35;15.00;99.90
52903;DHT22;38765;53.176;7.090;2022-08-21T02:36:02;15.00;99.90
52903;DHT22;38765;53.176;7.090;2022-08-21T02:38:31;14.90;99.90
52903;DHT22;38765;53.176;7.090;2022-08-21T02:40:59;14.90;99.90
52903;DHT22;38765;53.176;7.090;2022-08-21T02:43:27;14.60;99.90
52903;DHT22;38765;53.176;7.090;2022-08-21T02:46:02;14.90;99.90
52903;DHT22;38765;53.176;7.090;2022-08-21T02:48:35;14.90;99.90
52903;DHT22;38765;53.176;7.090;2022-08-21T02:51:04;14.90;99.90
52903;DHT22;38765;53.176;7.090;2022-08-21T02:53:31;14.90;99.90
52903;DHT22;38765;53.176;7.090;2022-08-21T02:56:02;14.80;99.90
52903;DHT22;38765;53.176;7.090;2022-08-21T02:58:32;14.80;99.90
52903;DHT22;38765;53.176;7.090;2022-08-21T03:01:00;14.80;99.90
52903;DHT22;38765;53.176;7.090;2022-08-21T03:03:29;14.70;99.90
52903;DHT22;38765;53.176;7.090;2022-08-21T03:05:55;14.70;99.90
52903;DHT22;38765;53.176;7.090;2022-08-21T03:08:25;14.60;99.90
52903;DHT22;38765;53.176;7.090;2022-08-21T03:10:54;14.70;99.90
52903;DHT22;38765;53.176;7.090;2022-08-21T03:13:21;14.60;99.90
52903;DHT22;38765;53.176;7.090;2022-08-21T03:15:50;14.60;99.90
52903;DHT22;38765;53.176;7.090;2022-08-21T03:18:16;14.60;99.90
52903;DHT22;38765;53.176;7.090;2022-08-21T03:20:45;14.60;99.90
52903;DHT22;38765;53.176;7.090;2022-08-21T03:23:15;14.60;99.90
52903;DHT22;38765;53.176;7.090;2022-08-21T03:25:45;14.60;99.90
52903;DHT22;38765;53.176;7.090;2022-08-21T03:28:21;14.50;99.90
52903;DHT22;38765;53.176;7.090;2022-08-21T03:30:51;14.50;99.90
52903;DHT22;38765;53.176;7.090;2022-08-21T03:33:18;14.40;99.90
52903;DHT22;38765;53.176;7.090;2022-08-21T03:35:49;14.40;99.90
52903;DHT22;38765;53.176;7.090;2022-08-21T03:38:19;14.40;99.90
52903;DHT22;38765;53.176;7.090;2022-08-21T03:40:47;14.40;99.90
52903;DHT22;38765;53.176;7.090;2022-08-21T03:43:13;14.40;99.90
52903;DHT22;38765;53.176;7.090;2022-08-21T03:45:39;14.40;99.90
52903;DHT22;38765;53.176;7.090;2022-08-21T03:48:08;14.40;99.90
52903;DHT22;38765;53.176;7.090;2022-08-21T03:50:39;14.30;99.90
52903;DHT22;38765;53.176;7.090;2022-08-21T03:53:07;14.40;99.90
52903;DHT22;38765;53.176;7.090;2022-08-21T03:55:33;14.30;99.90
52903;DHT22;38765;53.176;7.090;2022-08-21T03:57:59;14.30;99.90
52903;DHT22;38765;53.176;7.090;2022-08-21T04:00:28;14.00;99.90
52903;DHT22;38765;53.176;7.090;2022-08-21T04:03:21;14.30;99.90
52903;DHT22;38765;53.176;7.090;2022-08-21T04:05:47;14.30;99.90
52903;DHT22;38765;53.176;7.090;2022-08-21T04:08:14;14.30;99.90
52903;DHT22;38765;53.176;7.090;2022-08-21T04:10:41;14.40;99.90
52903;DHT22;38765;53.176;7.090;2022-08-21T04:13:11;14.30;99.90
52903;DHT22;38765;53.176;7.090;2022-08-21T04:15:36;14.10;99.90
52903;DHT22;38765;53.176;7.090;2022-08-21T04:18:03;13.90;99.90
52903;DHT22;38765;53.176;7.090;2022-08-21T04:20:29;14.20;99.90
52903;DHT22;38765;53.176;7.090;2022-08-21T04:22:57;14.30;99.90
52903;DHT22;38765;53.176;7.090;2022-08-21T04:25:33;14.30;99.90
52903;DHT22;38765;53.176;7.090;2022-08-21T04:28:02;14.30;99.90
52903;DHT22;38765;53.176;7.090;2022-08-21T04:30:28;14.30;99.90
52903;DHT22;38765;53.176;7.090;2022-08-21T04:33:03;14.30;99.90
52903;DHT22;38765;53.176;7.090;2022-08-21T04:35:34;14.30;99.90
52903;DHT22;38765;53.176;7.090;2022-08-21T04:38:08;14.30;99.90
52903;DHT22;38765;53.176;7.090;2022-08-21T04:40:41;14.30;99.90
52903;DHT22;38765;53.176;7.090;2022-08-21T04:43:15;14.30;99.90
52903;DHT22;38765;53.176;7.090;2022-08-21T04:45:52;14.40;99.90
52903;DHT22;38765;53.176;7.090;2022-08-21T04:48:24;14.40;99.90
52903;DHT22;38765;53.176;7.090;2022-08-21T04:51:02;14.40;99.90
52903;DHT22;38765;53.176;7.090;2022-08-21T04:56:10;14.50;99.90
52903;DHT22;38765;53.176;7.090;2022-08-21T04:58:44;14.50;99.90
52903;DHT22;38765;53.176;7.090;2022-08-21T05:01:27;14.50;99.90
52903;DHT22;38765;53.176;7.090;2022-08-21T05:03:55;14.60;99.90
52903;DHT22;38765;53.176;7.090;2022-08-21T05:06:28;14.60;99.90
52903;DHT22;38765;53.176;7.090;2022-08-21T05:08:54;14.80;99.90
52903;DHT22;38765;53.176;7.090;2022-08-21T05:11:23;14.60;99.90
52903;DHT22;38765;53.176;7.090;2022-08-21T05:13:49;14.60;99.90
52903;DHT22;38765;53.176;7.090;2022-08-21T05:16:15;14.70;99.90
52903;DHT22;38765;53.176;7.090;2022-08-21T05:18:42;14.70;99.90
52903;DHT22;38765;53.176;7.090;2022-08-21T05:21:08;14.80;99.90
52903;DHT22;38765;53.176;7.090;2022-08-21T05:23:36;14.80;99.90
52903;DHT22;38765;53.176;7.090;2022-08-21T05:26:05;14.80;99.90
52903;DHT22;38765;53.176;7.090;2022-08-21T05:28:33;14.80;99.90
52903;DHT22;38765;53.176;7.090;2022-08-21T05:31:11;14.90;99.90
52903;DHT22;38765;53.176;7.090;2022-08-21T05:33:39;14.90;99.90
52903;DHT22;38765;53.176;7.090;2022-08-21T05:36:10;14.90;99.90
52903;DHT22;38765;53.176;7.090;2022-08-21T05:38:38;15.00;99.90
52903;DHT22;38765;53.176;7.090;2022-08-21T05:41:04;15.00;99.90
52903;DHT22;38765;53.176;7.090;2022-08-21T05:43:30;15.00;99.90
52903;DHT22;38765;53.176;7.090;2022-08-21T05:46:06;15.10;99.90
52903;DHT22;38765;53.176;7.090;2022-08-21T05:48:34;15.10;99.90
52903;DHT22;38765;53.176;7.090;2022-08-21T05:51:09;14.80;99.90
52903;DHT22;38765;53.176;7.090;2022-08-21T05:53:38;15.20;99.90
52903;DHT22;38765;53.176;7.090;2022-08-21T05:56:04;15.20;99.90
52903;DHT22;38765;53.176;7.090;2022-08-21T05:58:40;15.20;99.90
52903;DHT22;38765;53.176;7.090;2022-08-21T06:01:08;15.30;99.90
52903;DHT22;38765;53.176;7.090;2022-08-21T06:03:41;15.30;99.90
52903;DHT22;38765;53.176;7.090;2022-08-21T06:06:07;15.30;99.90
52903;DHT22;38765;53.176;7.090;2022-08-21T06:08:45;15.40;99.90
52903;DHT22;38765;53.176;7.090;2022-08-21T06:11:16;15.40;99.90
52903;DHT22;38765;53.176;7.090;2022-08-21T06:13:51;15.50;99.90
52903;DHT22;38765;53.176;7.090;2022-08-21T06:16:19;15.50;99.90
52903;DHT22;38765;53.176;7.090;2022-08-21T06:18:46;15.60;99.90
52903;DHT22;38765;53.176;7.090;2022-08-21T06:21:17;15.60;99.90
52903;DHT22;38765;53.176;7.090;2022-08-21T06:23:49;15.70;99.90
52903;DHT22;38765;53.176;7.090;2022-08-21T06:26:15;15.70;99.90
52903;DHT22;38765;53.176;7.090;2022-08-21T06:28:48;15.80;99.90
52903;DHT22;38765;53.176;7.090;2022-08-21T06:31:25;15.90;99.90
52903;DHT22;38765;53.176;7.090;2022-08-21T06:33:51;16.00;99.90
52903;DHT22;38765;53.176;7.090;2022-08-21T06:36:17;16.10;99.90
52903;DHT22;38765;53.176;7.090;2022-08-21T06:38:43;16.20;99.90
52903;DHT22;38765;53.176;7.090;2022-08-21T06:41:13;16.20;99.90
52903;DHT22;38765;53.176;7.090;2022-08-21T06:43:39;16.20;99.90
52903;DHT22;38765;53.176;7.090;2022-08-21T06:46:06;16.30;99.90
52903;DHT22;38765;53.176;7.090;2022-08-21T06:48:35;16.40;99.90
52903;DHT22;38765;53.176;7.090;2022-08-21T06:51:04;16.10;99.90
52903;DHT22;38765;53.176;7.090;2022-08-21T06:53:34;16.50;99.90
52903;DHT22;38765;53.176;7.090;2022-08-21T06:56:03;16.50;99.90
52903;DHT22;38765;53.176;7.090;2022-08-21T06:58:31;16.60;99.90
52903;DHT22;38765;53.176;7.090;2022-08-21T07:01:05;16.60;99.90
52903;DHT22;38765;53.176;7.090;2022-08-21T07:03:41;16.70;99.90
52903;DHT22;38765;53.176;7.090;2022-08-21T07:06:12;16.70;99.90
52903;DHT22;38765;53.176;7.090;2022-08-21T07:08:40;16.80;99.90
52903;DHT22;38765;53.176;7.090;2022-08-21T07:11:18;16.80;99.90
52903;DHT22;38765;53.176;7.090;2022-08-21T07:13:52;16.90;99.90
52903;DHT22;38765;53.176;7.090;2022-08-21T07:16:21;16.90;99.90
52903;DHT22;38765;53.176;7.090;2022-08-21T07:18:47;17.20;99.90
52903;DHT22;38765;53.176;7.090;2022-08-21T07:21:15;17.10;99.90
52903;DHT22;38765;53.176;7.090;2022-08-21T07:23:49;17.20;99.90
52903;DHT22;38765;53.176;7.090;2022-08-21T07:26:17;17.20;99.90
52903;DHT22;38765;53.176;7.090;2022-08-21T07:28:43;17.30;99.90
52903;DHT22;38765;53.176;7.090;2022-08-21T07:31:10;17.30;99.90
52903;DHT22;38765;53.176;7.090;2022-08-21T07:33:39;17.40;99.90
52903;DHT22;38765;53.176;7.090;2022-08-21T07:36:08;17.40;99.90
52903;DHT22;38765;53.176;7.090;2022-08-21T07:38:36;17.50;99.90
52903;DHT22;38765;53.176;7.090;2022-08-21T07:41:10;17.60;99.90
52903;DHT22;38765;53.176;7.090;2022-08-21T07:43:56;17.60;99.90
52903;DHT22;38765;53.176;7.090;2022-08-21T07:46:26;17.70;99.90
52903;DHT22;38765;53.176;7.090;2022-08-21T07:48:54;17.80;99.90
52903;DHT22;38765;53.176;7.090;2022-08-21T07:51:24;17.80;99.90
52903;DHT22;38765;53.176;7.090;2022-08-21T07:53:57;17.90;99.90
52903;DHT22;38765;53.176;7.090;2022-08-21T07:56:25;18.00;99.90
52903;DHT22;38765;53.176;7.090;2022-08-21T07:58:59;18.00;99.90
52903;DHT22;38765;53.176;7.090;2022-08-21T08:01:28;18.10;99.90
52903;DHT22;38765;53.176;7.090;2022-08-21T08:03:55;18.10;99.90
52903;DHT22;38765;53.176;7.090;2022-08-21T08:06:23;18.20;99.90
52903;DHT22;38765;53.176;7.090;2022-08-21T08:08:49;18.30;99.90
52903;DHT22;38765;53.176;7.090;2022-08-21T08:11:18;18.30;99.90
52903;DHT22;38765;53.176;7.090;2022-08-21T08:13:49;18.00;99.90
52903;DHT22;38765;53.176;7.090;2022-08-21T08:16:20;18.40;99.90
52903;DHT22;38765;53.176;7.090;2022-08-21T08:18:46;18.50;99.90
52903;DHT22;38765;53.176;7.090;2022-08-21T08:21:13;18.70;99.90
52903;DHT22;38765;53.176;7.090;2022-08-21T08:23:47;18.60;99.90
52903;DHT22;38765;53.176;7.090;2022-08-21T08:26:16;18.60;99.90
52903;DHT22;38765;53.176;7.090;2022-08-21T08:28:42;18.60;99.90
52903;DHT22;38765;53.176;7.090;2022-08-21T08:31:08;18.70;99.90
52903;DHT22;38765;53.176;7.090;2022-08-21T08:33:34;18.80;99.90
52903;DHT22;38765;53.176;7.090;2022-08-21T08:36:15;18.80;99.90
52903;DHT22;38765;53.176;7.090;2022-08-21T08:38:43;18.90;99.90
52903;DHT22;38765;53.176;7.090;2022-08-21T08:41:28;19.00;99.90
52903;DHT22;38765;53.176;7.090;2022-08-21T08:44:04;19.10;99.90
52903;DHT22;38765;53.176;7.090;2022-08-21T08:46:33;19.10;99.90
52903;DHT22;38765;53.176;7.090;2022-08-21T08:49:08;19.10;99.90
52903;DHT22;38765;53.176;7.090;2022-08-21T08:52:05;19.20;99.90
52903;DHT22;38765;53.176;7.090;2022-08-21T08:55:05;19.20;99.90
52903;DHT22;38765;53.176;7.090;2022-08-21T08:57:32;19.30;99.90
52903;DHT22;38765;53.176;7.090;2022-08-21T09:00:06;19.30;99.90
52903;DHT22;38765;53.176;7.090;2022-08-21T09:02:42;19.30;99.90
52903;DHT22;38765;53.176;7.090;2022-08-21T09:05:23;19.40;99.90
52903;DHT22;38765;53.176;7.090;2022-08-21T09:08:03;19.40;99.90
52903;DHT22;38765;53.176;7.090;2022-08-21T09:10:53;19.50;99.90
52903;DHT22;38765;53.176;7.090;2022-08-21T09:13:46;19.30;99.90
52903;DHT22;38765;53.176;7.090;2022-08-21T09:19:59;19.70;99.90
52903;DHT22;38765;53.176;7.090;2022-08-21T09:22:58;19.70;99.90
52903;DHT22;38765;53.176;7.090;2022-08-21T09:25:38;19.80;99.90
52903;DHT22;38765;53.176;7.090;2022-08-21T09:28:09;19.80;99.90
52903;DHT22;38765;53.176;7.090;2022-08-21T09:30:40;19.90;99.90
52903;DHT22;38765;53.176;7.090;2022-08-21T09:33:06;20.00;99.90
52903;DHT22;38765;53.176;7.090;2022-08-21T09:35:48;20.00;99.90
52903;DHT22;38765;53.176;7.090;2022-08-21T09:38:31;20.10;99.90
52903;DHT22;38765;53.176;7.090;2022-08-21T09:41:06;20.10;99.90
52903;DHT22;38765;53.176;7.090;2022-08-21T09:43:37;20.20;99.90
52903;DHT22;38765;53.176;7.090;2022-08-21T09:46:11;20.20;99.90
52903;DHT22;38765;53.176;7.090;2022-08-21T09:48:46;20.30;99.90
52903;DHT22;38765;53.176;7.090;2022-08-21T09:51:27;20.40;99.90
52903;DHT22;38765;53.176;7.090;2022-08-21T09:56:38;20.50;99.90
52903;DHT22;38765;53.176;7.090;2022-08-21T09:59:32;20.50;99.90
52903;DHT22;38765;53.176;7.090;2022-08-21T10:04:53;20.50;99.90
52903;DHT22;38765;53.176;7.090;2022-08-21T10:07:35;20.50;99.90
52903;DHT22;38765;53.176;7.090;2022-08-21T10:10:09;20.50;99.90
52903;DHT22;38765;53.176;7.090;2022-08-21T10:18:42;20.60;99.90
52903;DHT22;38765;53.176;7.090;2022-08-21T10:21:15;20.60;99.90
52903;DHT22;38765;53.176;7.090;2022-08-21T10:23:58;20.70;99.90
52903;DHT22;38765;53.176;7.090;2022-08-21T10:26:54;20.70;99.90
52903;DHT22;38765;53.176;7.090;2022-08-21T10:35:39;20.90;99.90
52903;DHT22;38765;53.176;7.090;2022-08-21T10:38:32;21.00;99.90
52903;DHT22;38765;53.176;7.090;2022-08-21T10:43:52;21.20;99.90
52903;DHT22;38765;53.176;7.090;2022-08-21T10:49:25;21.30;99.90
52903;DHT22;38765;53.176;7.090;2022-08-21T10:55:15;21.50;99.90
52903;DHT22;38765;53.176;7.090;2022-08-21T10:57:59;21.60;99.90
52903;DHT22;38765;53.176;7.090;2022-08-21T11:00:33;21.60;99.90
52903;DHT22;38765;53.176;7.090;2022-08-21T11:06:13;21.70;99.90
52903;DHT22;38765;53.176;7.090;2022-08-21T11:08:52;21.80;99.90
52903;DHT22;38765;53.176;7.090;2022-08-21T11:12:10;22.00;99.90
52903;DHT22;38765;53.176;7.090;2022-08-21T11:17:50;22.10;99.90
52903;DHT22;38765;53.176;7.090;2022-08-21T11:20:43;22.20;99.90
52903;DHT22;38765;53.176;7.090;2022-08-21T11:23:37;22.30;99.90
52903;DHT22;38765;53.176;7.090;2022-08-21T11:26:29;22.50;99.90
52903;DHT22;38765;53.176;7.090;2022-08-21T11:29:02;22.70;99.90
52903;DHT22;38765;53.176;7.090;2022-08-21T11:31:51;22.80;99.90
52903;DHT22;38765;53.176;7.090;2022-08-21T11:45:10;23.00;99.90
52903;DHT22;38765;53.176;7.090;2022-08-21T11:50:25;23.20;99.90
52903;DHT22;38765;53.176;7.090;2022-08-21T11:53:17;23.10;99.90
52903;DHT22;38765;53.176;7.090;2022-08-21T11:55:53;23.10;99.90
52903;DHT22;38765;53.176;7.090;2022-08-21T11:58:30;23.10;99.90
52903;DHT22;38765;53.176;7.090;2022-08-21T12:01:01;23.10;99.90
52903;DHT22;38765;53.176;7.090;2022-08-21T12:06:12;23.00;99.90
52903;DHT22;38765;53.176;7.090;2022-08-21T12:08:40;23.00;99.90
52903;DHT22;38765;53.176;7.090;2022-08-21T12:11:08;23.00;99.90
52903;DHT22;38765;53.176;7.090;2022-08-21T12:13:40;23.00;99.90
52903;DHT22;38765;53.176;7.090;2022-08-21T12:16:49;23.00;99.90
52903;DHT22;38765;53.176;7.090;2022-08-21T12:19:29;22.90;99.90
52903;DHT22;38765;53.176;7.090;2022-08-21T12:22:14;22.90;99.90
52903;DHT22;38765;53.176;7.090;2022-08-21T12:24:43;22.90;99.90
52903;DHT22;38765;53.176;7.090;2022-08-21T12:27:30;22.80;99.90
52903;DHT22;38765;53.176;7.090;2022-08-21T12:30:01;22.70;99.90
52903;DHT22;38765;53.176;7.090;2022-08-21T12:32:30;22.70;99.90
52903;DHT22;38765;53.176;7.090;2022-08-21T12:35:18;22.60;99.90
52903;DHT22;38765;53.176;7.090;2022-08-21T12:38:17;22.40;99.90
52903;DHT22;38765;53.176;7.090;2022-08-21T12:47:11;22.20;99.90
52903;DHT22;38765;53.176;7.090;2022-08-21T12:49:51;22.10;99.90
52903;DHT22;38765;53.176;7.090;2022-08-21T12:52:29;22.10;99.90
52903;DHT22;38765;53.176;7.090;2022-08-21T13:04:41;22.30;99.90
52903;DHT22;38765;53.176;7.090;2022-08-21T13:07:09;22.70;99.90
52903;DHT22;38765;53.176;7.090;2022-08-21T13:09:49;22.80;99.90
52903;DHT22;38765;53.176;7.090;2022-08-21T13:12:17;22.90;99.90
52903;DHT22;38765;53.176;7.090;2022-08-21T13:14:45;23.00;99.90
52903;DHT22;38765;53.176;7.090;2022-08-21T13:17:20;23.10;99.90
52903;DHT22;38765;53.176;7.090;2022-08-21T13:20:05;23.20;99.90
52903;DHT22;38765;53.176;7.090;2022-08-21T13:22:31;23.40;99.90
52903;DHT22;38765;53.176;7.090;2022-08-21T13:24:57;23.50;99.90
52903;DHT22;38765;53.176;7.090;2022-08-21T13:27:26;23.80;99.90
52903;DHT22;38765;53.176;7.090;2022-08-21T13:30:06;23.90;99.90
52903;DHT22;38765;53.176;7.090;2022-08-21T13:32:39;24.00;99.90
52903;DHT22;38765;53.176;7.090;2022-08-21T13:35:26;23.90;99.90
52903;DHT22;38765;53.176;7.090;2022-08-21T13:37:54;23.90;99.90
52903;DHT22;38765;53.176;7.090;2022-08-21T13:40:29;23.80;99.90
52903;DHT22;38765;53.176;7.090;2022-08-21T13:42:58;23.70;99.90
52903;DHT22;38765;53.176;7.090;2022-08-21T13:45:32;23.70;99.90
52903;DHT22;38765;53.176;7.090;2022-08-21T13:48:02;23.50;99.90
52903;DHT22;38765;53.176;7.090;2022-08-21T13:50:35;23.50;99.90
52903;DHT22;38765;53.176;7.090;2022-08-21T13:53:20;23.70;99.90
52903;DHT22;38765;53.176;7.090;2022-08-21T13:55:58;23.70;99.90
52903;DHT22;38765;53.176;7.090;2022-08-21T13:58:43;23.70;99.90
52903;DHT22;38765;53.176;7.090;2022-08-21T14:01:27;23.70;99.90
52903;DHT22;38765;53.176;7.090;2022-08-21T14:04:16;23.50;99.90
52903;DHT22;38765;53.176;7.090;2022-08-21T14:06:45;23.40;99.90
52903;DHT22;38765;53.176;7.090;2022-08-21T14:09:31;23.40;99.90
52903;DHT22;38765;53.176;7.090;2022-08-21T14:12:01;23.30;99.90
52903;DHT22;38765;53.176;7.090;2022-08-21T14:14:39;23.40;99.90
52903;DHT22;38765;53.176;7.090;2022-08-21T14:17:10;23.40;99.90
52903;DHT22;38765;53.176;7.090;2022-08-21T14:20:00;23.40;99.90
52903;DHT22;38765;53.176;7.090;2022-08-21T14:22:40;23.40;99.90
52903;DHT22;38765;53.176;7.090;2022-08-21T14:30:37;23.30;99.90
52903;DHT22;38765;53.176;7.090;2022-08-21T14:33:07;23.20;99.90
52903;DHT22;38765;53.176;7.090;2022-08-21T14:35:34;23.00;99.90
52903;DHT22;38765;53.176;7.090;2022-08-21T14:38:14;22.90;99.90
52903;DHT22;38765;53.176;7.090;2022-08-21T14:40:52;22.70;99.90
52903;DHT22;38765;53.176;7.090;2022-08-21T14:43:19;22.50;99.90
52903;DHT22;38765;53.176;7.090;2022-08-21T14:45:45;22.40;99.90
52903;DHT22;38765;53.176;7.090;2022-08-21T14:48:14;22.30;99.90
52903;DHT22;38765;53.176;7.090;2022-08-21T14:50:40;22.30;99.90
52903;DHT22;38765;53.176;7.090;2022-08-21T14:53:09;22.20;99.90
52903;DHT22;38765;53.176;7.090;2022-08-21T14:55:38;22.10;99.90
52903;DHT22;38765;53.176;7.090;2022-08-21T14:58:24;22.10;99.90
52903;DHT22;38765;53.176;7.090;2022-08-21T15:00:56;22.00;99.90
52903;DHT22;38765;53.176;7.090;2022-08-21T15:03:24;21.90;99.90
52903;DHT22;38765;53.176;7.090;2022-08-21T15:05:51;21.90;99.90
52903;DHT22;38765;53.176;7.090;2022-08-21T15:08:24;21.80;99.90
52903;DHT22;38765;53.176;7.090;2022-08-21T15:10:58;21.70;99.90
52903;DHT22;38765;53.176;7.090;2022-08-21T15:13:35;21.70;99.90
52903;DHT22;38765;53.176;7.090;2022-08-21T15:16:04;21.80;99.90
52903;DHT22;38765;53.176;7.090;2022-08-21T15:18:35;22.00;99.90
52903;DHT22;38765;53.176;7.090;2022-08-21T15:21:11;22.10;99.90
52903;DHT22;38765;53.176;7.090;2022-08-21T15:23:37;22.30;99.90
52903;DHT22;38765;53.176;7.090;2022-08-21T15:26:09;22.40;99.90
52903;DHT22;38765;53.176;7.090;2022-08-21T15:28:38;22.60;99.90
52903;DHT22;38765;53.176;7.090;2022-08-21T15:31:12;22.80;99.90
52903;DHT22;38765;53.176;7.090;2022-08-21T15:33:41;23.00;99.90
52903;DHT22;38765;53.176;7.090;2022-08-21T15:36:09;22.90;99.90
52903;DHT22;38765;53.176;7.090;2022-08-21T15:38:35;22.90;99.90
52903;DHT22;38765;53.176;7.090;2022-08-21T15:41:04;22.90;99.90
52903;DHT22;38765;53.176;7.090;2022-08-21T15:46:14;22.60;99.90
52903;DHT22;38765;53.176;7.090;2022-08-21T15:48:49;22.60;99.90
52903;DHT22;38765;53.176;7.090;2022-08-21T15:51:18;22.60;99.90
52903;DHT22;38765;53.176;7.090;2022-08-21T15:53:45;22.70;99.90
52903;DHT22;38765;53.176;7.090;2022-08-21T15:56:25;22.60;99.90
52903;DHT22;38765;53.176;7.090;2022-08-21T15:59:08;22.50;99.90
52903;DHT22;38765;53.176;7.090;2022-08-21T16:01:35;22.50;99.90
52903;DHT22;38765;53.176;7.090;2022-08-21T16:04:09;22.40;99.90
52903;DHT22;38765;53.176;7.090;2022-08-21T16:06:37;22.30;99.90
52903;DHT22;38765;53.176;7.090;2022-08-21T16:09:07;22.20;99.90
52903;DHT22;38765;53.176;7.090;2022-08-21T16:11:33;22.10;99.90
52903;DHT22;38765;53.176;7.090;2022-08-21T16:14:02;22.00;99.90
52903;DHT22;38765;53.176;7.090;2022-08-21T16:16:30;21.90;99.90
52903;DHT22;38765;53.176;7.090;2022-08-21T16:19:05;21.90;99.90
52903;DHT22;38765;53.176;7.090;2022-08-21T16:21:33;21.80;99.90
52903;DHT22;38765;53.176;7.090;2022-08-21T16:24:02;21.80;99.90
52903;DHT22;38765;53.176;7.090;2022-08-21T16:26:30;21.70;99.90
52903;DHT22;38765;53.176;7.090;2022-08-21T16:29:04;21.70;99.90
52903;DHT22;38765;53.176;7.090;2022-08-21T16:31:40;21.60;99.90
52903;DHT22;38765;53.176;7.090;2022-08-21T16:34:06;21.50;99.90
52903;DHT22;38765;53.176;7.090;2022-08-21T16:36:32;21.50;99.90
52903;DHT22;38765;53.176;7.090;2022-08-21T16:39:04;21.30;99.90
52903;DHT22;38765;53.176;7.090;2022-08-21T16:41:33;21.20;99.90
52903;DHT22;38765;53.176;7.090;2022-08-21T16:44:05;20.90;99.90
52903;DHT22;38765;53.176;7.090;2022-08-21T16:46:38;21.10;99.90
52903;DHT22;38765;53.176;7.090;2022-08-21T16:49:05;21.10;99.90
52903;DHT22;38765;53.176;7.090;2022-08-21T16:51:30;21.00;99.90
52903;DHT22;38765;53.176;7.090;2022-08-21T16:53:59;21.00;99.90
52903;DHT22;38765;53.176;7.090;2022-08-21T16:56:32;20.90;99.90
52903;DHT22;38765;53.176;7.090;2022-08-21T16:59:02;20.90;99.90
52903;DHT22;38765;53.176;7.090;2022-08-21T17:01:32;20.90;99.90
52903;DHT22;38765;53.176;7.090;2022-08-21T17:04:01;20.90;99.90
52903;DHT22;38765;53.176;7.090;2022-08-21T17:06:31;20.90;99.90
52903;DHT22;38765;53.176;7.090;2022-08-21T17:08:58;20.90;99.90
52903;DHT22;38765;53.176;7.090;2022-08-21T17:11:40;20.80;99.90
52903;DHT22;38765;53.176;7.090;2022-08-21T17:14:16;20.80;99.90
52903;DHT22;38765;53.176;7.090;2022-08-21T17:16:49;20.80;99.90
52903;DHT22;38765;53.176;7.090;2022-08-21T17:19:18;20.80;99.90
52903;DHT22;38765;53.176;7.090;2022-08-21T17:21:49;20.70;99.90
52903;DHT22;38765;53.176;7.090;2022-08-21T17:24:20;20.70;99.90
52903;DHT22;38765;53.176;7.090;2022-08-21T17:26:52;20.60;99.90